Flight Track Log - Related Links

Times and Time Zones

All times are in EDT time to prevent confusion due to time zone crossing. See the SLI2311 flight status page for this flight to view local times or setup timezone preferences in your user account.

Time Position Orientation Groundspeed Altitude Reporting Facility
EDT Latitude Longitude Course Direction KTS MPH feet Rate Location/Type
Thu 05:31:00 PM 20.7478 -103.5242 319° Northwest  Level Estimated
Thu 05:32:00 PM 20.8230 -103.5953 319° Northwest  Level Estimated
Thu 05:33:00 PM 20.8983 -103.6666 319° Northwest  Level Estimated
Thu 05:34:00 PM 20.9734 -103.7378 318° Northwest  Level Estimated
Thu 05:35:00 PM 21.0486 -103.8092 318° Northwest  Level Estimated
Thu 05:36:00 PM 21.1238 -103.8806 318° Northwest  Level Estimated
Thu 05:37:00 PM 21.1989 -103.9521 318° Northwest  Level Estimated
Thu 05:38:00 PM 21.2740 -104.0237 318° Northwest  Level Estimated
Thu 05:39:00 PM 21.3490 -104.0954 318° Northwest  Level Estimated
Thu 05:40:00 PM 21.4240 -104.1671 318° Northwest  Level Estimated
Thu 05:41:00 PM 21.4990 -104.2389 318° Northwest  Level Estimated
Thu 05:42:00 PM 21.5740 -104.3108 318° Northwest  Level Estimated
Thu 05:43:00 PM 21.6489 -104.3827 318° Northwest  Level Estimated
Thu 05:44:00 PM 21.7238 -104.4548 318° Northwest  Level Estimated
Thu 05:45:00 PM 21.7987 -104.5268 318° Northwest  Level Estimated
Thu 05:46:00 PM 21.8735 -104.5990 318° Northwest  Level Estimated
Thu 05:47:00 PM 21.9483 -104.6713 318° Northwest  Level Estimated
Thu 05:48:00 PM 22.0231 -104.7436 318° Northwest  Level Estimated
Thu 05:49:00 PM 22.0978 -104.8160 318° Northwest  Level Estimated
Thu 05:50:00 PM 22.1725 -104.8885 318° Northwest  Level Estimated
Thu 05:51:00 PM 22.2472 -104.9610 318° Northwest  Level Estimated
Thu 05:52:00 PM 22.3218 -105.0337 318° Northwest  Level Estimated
Thu 05:53:00 PM 22.3965 -105.1064 318° Northwest  Level Estimated
Thu 05:54:00 PM 22.4710 -105.1792 318° Northwest  Level Estimated
Thu 05:55:00 PM 22.5456 -105.2520 318° Northwest  Level Estimated
Thu 05:56:00 PM 22.6201 -105.3250 318° Northwest  Level Estimated
Thu 05:57:00 PM 22.6946 -105.3980 318° Northwest  Level Estimated
Thu 05:58:00 PM 22.7690 -105.4711 318° Northwest  Level Estimated
Thu 05:59:00 PM 22.8434 -105.5443 318° Northwest  Level Estimated
Thu 06:00:00 PM 22.9178 -105.6176 318° Northwest  Level Estimated
Thu 06:01:00 PM 22.9922 -105.6909 318° Northwest  Level Estimated
Thu 06:02:00 PM 23.0665 -105.7643 318° Northwest  Level Estimated
Thu 06:03:00 PM 23.1408 -105.8378 318° Northwest  Level Estimated
Thu 06:04:00 PM 23.2150 -105.9114 318° Northwest  Level Estimated
Thu 06:05:00 PM 23.2892 -105.9851 318° Northwest  Level Estimated
Thu 06:06:00 PM 23.3634 -106.0588 318° Northwest  Level Estimated
Thu 06:07:00 PM 23.4375 -106.1327 318° Northwest  Level Estimated
Thu 06:08:00 PM 23.5117 -106.2066 318° Northwest  Level Estimated
Thu 06:09:00 PM 23.5857 -106.2806 318° Northwest  Level Estimated
Thu 06:10:00 PM 23.6598 -106.3547 318° Northwest  Level Estimated
Thu 06:11:00 PM 23.7338 -106.4288 317° Northwest  Level Estimated
Thu 06:12:00 PM 23.8077 -106.5031 317° Northwest  Level Estimated
Thu 06:13:00 PM 23.8817 -106.5774 317° Northwest  Level Estimated
Thu 06:14:00 PM 23.9556 -106.6518 317° Northwest  Level Estimated
Thu 06:15:00 PM 24.0294 -106.7264 317° Northwest  Level Estimated
Thu 06:16:00 PM 24.1032 -106.8009 317° Northwest  Level Estimated
Thu 06:17:00 PM 24.1770 -106.8756 317° Northwest  Level Estimated
Thu 06:18:00 PM 24.2508 -106.9504 317° Northwest  Level Estimated
Thu 06:19:00 PM 24.3245 -107.0253 317° Northwest  Level Estimated
Thu 06:20:00 PM 24.3982 -107.1002 317° Northwest  Level Estimated
Thu 06:21:00 PM 24.4718 -107.1752 317° Northwest  Level Estimated
Thu 06:22:00 PM 24.5454 -107.2503 317° Northwest  Level Estimated
Thu 06:23:00 PM 24.6190 -107.3255 317° Northwest  Level Estimated
Thu 06:24:00 PM 24.6925 -107.4008 317° Northwest  Level Estimated
Thu 06:25:00 PM 24.7645 -107.4747 317° Northwest  Level Estimated
Thu 06:26:00 PM 24.7645 -107.4747 138° Southeast  Level Estimated
Thu 06:27:00 PM 24.7645 -107.4747 138° Southeast  Level Estimated
Thu 06:28:00 PM 24.7645 -107.4747 138° Southeast  Level Estimated
Thu 06:29:00 PM 24.7645 -107.4747 138° Southeast  Level Estimated
Thu 06:30:00 PM 24.7645 -107.4747 138° Southeast  Level Estimated
Thu 06:31:00 PM 24.7645 -107.4747 138° Southeast  Level Estimated
Thu 06:32:00 PM 24.7645 -107.4747 138° Southeast  Level Estimated
Thu 06:33:00 PM 24.7645 -107.4747 138° Southeast  Level Estimated

Login

Don't have an account? Register now (free) for customized features, flight alerts, and more!